sensor_id;sensor_type;location;lat;lon;timestamp;P1;durP1;ratioP1;P2;durP2;ratioP2
545;SDS011;259;53.304;9.816;2024-02-21T00:00:19;4.17;;;3.80;;
545;SDS011;259;53.304;9.816;2024-02-21T00:02:45;4.83;;;4.43;;
545;SDS011;259;53.304;9.816;2024-02-21T00:05:10;4.17;;;3.77;;
545;SDS011;259;53.304;9.816;2024-02-21T00:07:36;5.53;;;3.60;;
545;SDS011;259;53.304;9.816;2024-02-21T00:10:02;3.60;;;3.20;;
545;SDS011;259;53.304;9.816;2024-02-21T00:12:28;3.90;;;3.50;;
545;SDS011;259;53.304;9.816;2024-02-21T00:14:54;3.70;;;3.40;;
545;SDS011;259;53.304;9.816;2024-02-21T00:17:19;3.80;;;3.50;;
545;SDS011;259;53.304;9.816;2024-02-21T00:19:45;4.10;;;3.80;;
545;SDS011;259;53.304;9.816;2024-02-21T00:22:11;3.70;;;3.40;;
545;SDS011;259;53.304;9.816;2024-02-21T00:24:36;3.87;;;3.67;;
545;SDS011;259;53.304;9.816;2024-02-21T00:27:02;4.20;;;3.90;;
545;SDS011;259;53.304;9.816;2024-02-21T00:29:28;6.13;;;3.97;;
545;SDS011;259;53.304;9.816;2024-02-21T00:31:54;3.57;;;3.27;;
545;SDS011;259;53.304;9.816;2024-02-21T00:34:20;5.97;;;3.93;;
545;SDS011;259;53.304;9.816;2024-02-21T00:36:45;4.20;;;3.60;;
545;SDS011;259;53.304;9.816;2024-02-21T00:39:11;4.33;;;3.60;;
545;SDS011;259;53.304;9.816;2024-02-21T00:41:36;4.00;;;3.60;;
545;SDS011;259;53.304;9.816;2024-02-21T00:44:02;4.23;;;3.80;;
545;SDS011;259;53.304;9.816;2024-02-21T00:46:30;3.87;;;3.57;;
545;SDS011;259;53.304;9.816;2024-02-21T00:48:56;3.30;;;3.10;;
545;SDS011;259;53.304;9.816;2024-02-21T00:51:21;4.20;;;3.30;;
545;SDS011;259;53.304;9.816;2024-02-21T00:53:47;5.20;;;4.70;;
545;SDS011;259;53.304;9.816;2024-02-21T00:56:13;4.40;;;3.83;;
545;SDS011;259;53.304;9.816;2024-02-21T00:58:38;3.50;;;3.20;;
545;SDS011;259;53.304;9.816;2024-02-21T01:01:04;6.83;;;4.30;;
545;SDS011;259;53.304;9.816;2024-02-21T01:03:30;4.33;;;3.93;;
545;SDS011;259;53.304;9.816;2024-02-21T01:05:55;4.63;;;4.23;;
545;SDS011;259;53.304;9.816;2024-02-21T01:08:21;7.00;;;4.00;;
545;SDS011;259;53.304;9.816;2024-02-21T01:10:47;3.60;;;3.30;;
545;SDS011;259;53.304;9.816;2024-02-21T01:13:12;5.13;;;3.80;;
545;SDS011;259;53.304;9.816;2024-02-21T01:15:39;3.73;;;3.43;;
545;SDS011;259;53.304;9.816;2024-02-21T01:18:04;5.43;;;3.90;;
545;SDS011;259;53.304;9.816;2024-02-21T01:20:31;5.77;;;4.20;;
545;SDS011;259;53.304;9.816;2024-02-21T01:22:57;4.67;;;4.27;;
545;SDS011;259;53.304;9.816;2024-02-21T01:25:22;4.10;;;3.60;;
545;SDS011;259;53.304;9.816;2024-02-21T01:27:48;4.30;;;3.90;;
545;SDS011;259;53.304;9.816;2024-02-21T01:30:14;3.87;;;3.57;;
545;SDS011;259;53.304;9.816;2024-02-21T01:32:40;7.40;;;4.50;;
545;SDS011;259;53.304;9.816;2024-02-21T01:35:06;4.13;;;3.73;;
545;SDS011;259;53.304;9.816;2024-02-21T01:37:33;4.40;;;4.10;;
545;SDS011;259;53.304;9.816;2024-02-21T01:39:58;4.03;;;3.70;;
545;SDS011;259;53.304;9.816;2024-02-21T01:42:24;4.10;;;3.63;;
545;SDS011;259;53.304;9.816;2024-02-21T01:44:50;4.27;;;3.97;;
545;SDS011;259;53.304;9.816;2024-02-21T01:47:16;3.87;;;3.57;;
545;SDS011;259;53.304;9.816;2024-02-21T01:49:41;4.50;;;3.97;;
545;SDS011;259;53.304;9.816;2024-02-21T01:52:08;4.53;;;4.07;;
545;SDS011;259;53.304;9.816;2024-02-21T01:54:35;3.73;;;3.43;;
545;SDS011;259;53.304;9.816;2024-02-21T01:57:00;4.97;;;4.37;;
545;SDS011;259;53.304;9.816;2024-02-21T01:59:26;5.17;;;4.77;;
545;SDS011;259;53.304;9.816;2024-02-21T02:01:52;4.40;;;4.00;;
545;SDS011;259;53.304;9.816;2024-02-21T02:04:20;5.00;;;4.57;;
545;SDS011;259;53.304;9.816;2024-02-21T02:06:46;4.90;;;4.47;;
545;SDS011;259;53.304;9.816;2024-02-21T02:09:12;4.90;;;4.50;;
545;SDS011;259;53.304;9.816;2024-02-21T02:11:37;5.67;;;4.87;;
545;SDS011;259;53.304;9.816;2024-02-21T02:14:04;4.30;;;4.00;;
545;SDS011;259;53.304;9.816;2024-02-21T02:16:29;6.80;;;5.10;;
545;SDS011;259;53.304;9.816;2024-02-21T02:18:55;5.90;;;5.40;;
545;SDS011;259;53.304;9.816;2024-02-21T02:21:30;4.83;;;4.43;;
545;SDS011;259;53.304;9.816;2024-02-21T02:24:21;4.07;;;3.73;;
545;SDS011;259;53.304;9.816;2024-02-21T02:26:49;5.07;;;4.57;;
545;SDS011;259;53.304;9.816;2024-02-21T02:29:14;5.10;;;4.60;;
545;SDS011;259;53.304;9.816;2024-02-21T02:31:41;5.97;;;4.37;;
545;SDS011;259;53.304;9.816;2024-02-21T02:34:07;4.40;;;4.00;;
545;SDS011;259;53.304;9.816;2024-02-21T02:36:33;7.33;;;4.30;;
545;SDS011;259;53.304;9.816;2024-02-21T02:38:59;4.60;;;4.20;;
545;SDS011;259;53.304;9.816;2024-02-21T02:41:24;4.73;;;4.23;;
545;SDS011;259;53.304;9.816;2024-02-21T02:43:50;4.10;;;3.80;;
545;SDS011;259;53.304;9.816;2024-02-21T02:46:16;5.20;;;4.47;;
545;SDS011;259;53.304;9.816;2024-02-21T02:48:41;5.77;;;5.00;;
545;SDS011;259;53.304;9.816;2024-02-21T02:51:07;5.50;;;5.00;;
545;SDS011;259;53.304;9.816;2024-02-21T02:53:33;5.20;;;4.70;;
545;SDS011;259;53.304;9.816;2024-02-21T02:55:58;5.27;;;4.77;;
545;SDS011;259;53.304;9.816;2024-02-21T02:58:24;4.30;;;4.00;;
545;SDS011;259;53.304;9.816;2024-02-21T03:00:50;5.43;;;3.83;;
545;SDS011;259;53.304;9.816;2024-02-21T03:03:15;4.10;;;3.70;;
545;SDS011;259;53.304;9.816;2024-02-21T03:05:41;5.30;;;4.80;;
545;SDS011;259;53.304;9.816;2024-02-21T03:08:07;4.50;;;4.10;;
545;SDS011;259;53.304;9.816;2024-02-21T03:10:33;5.17;;;4.67;;
545;SDS011;259;53.304;9.816;2024-02-21T03:12:59;4.93;;;4.43;;
545;SDS011;259;53.304;9.816;2024-02-21T03:15:24;4.50;;;4.10;;
545;SDS011;259;53.304;9.816;2024-02-21T03:17:50;4.40;;;4.00;;
545;SDS011;259;53.304;9.816;2024-02-21T03:20:16;4.37;;;3.83;;
545;SDS011;259;53.304;9.816;2024-02-21T03:22:41;4.80;;;4.40;;
545;SDS011;259;53.304;9.816;2024-02-21T03:25:08;4.73;;;4.30;;
545;SDS011;259;53.304;9.816;2024-02-21T03:27:39;4.80;;;4.30;;
545;SDS011;259;53.304;9.816;2024-02-21T03:30:04;5.00;;;3.90;;
545;SDS011;259;53.304;9.816;2024-02-21T03:32:31;4.90;;;4.40;;
545;SDS011;259;53.304;9.816;2024-02-21T03:34:56;4.53;;;4.07;;
545;SDS011;259;53.304;9.816;2024-02-21T03:37:22;4.50;;;4.10;;
545;SDS011;259;53.304;9.816;2024-02-21T03:39:48;4.80;;;4.40;;
545;SDS011;259;53.304;9.816;2024-02-21T03:42:13;5.63;;;5.10;;
545;SDS011;259;53.304;9.816;2024-02-21T03:44:39;4.13;;;3.83;;
545;SDS011;259;53.304;9.816;2024-02-21T03:47:05;4.63;;;4.20;;
545;SDS011;259;53.304;9.816;2024-02-21T03:49:30;4.83;;;4.33;;
545;SDS011;259;53.304;9.816;2024-02-21T03:51:56;4.67;;;4.27;;
545;SDS011;259;53.304;9.816;2024-02-21T03:54:22;4.50;;;4.10;;
545;SDS011;259;53.304;9.816;2024-02-21T03:56:47;4.83;;;4.40;;
545;SDS011;259;53.304;9.816;2024-02-21T03:59:13;4.83;;;4.43;;
545;SDS011;259;53.304;9.816;2024-02-21T04:01:40;5.97;;;4.97;;
545;SDS011;259;53.304;9.816;2024-02-21T04:04:05;4.80;;;4.17;;
545;SDS011;259;53.304;9.816;2024-02-21T04:06:31;5.33;;;4.87;;
545;SDS011;259;53.304;9.816;2024-02-21T04:08:57;5.20;;;4.70;;
545;SDS011;259;53.304;9.816;2024-02-21T04:11:23;4.70;;;4.17;;
545;SDS011;259;53.304;9.816;2024-02-21T04:13:49;7.00;;;5.57;;
545;SDS011;259;53.304;9.816;2024-02-21T04:16:16;6.47;;;5.50;;
545;SDS011;259;53.304;9.816;2024-02-21T04:18:42;5.13;;;4.73;;
545;SDS011;259;53.304;9.816;2024-02-21T04:21:09;5.10;;;4.60;;
545;SDS011;259;53.304;9.816;2024-02-21T04:23:35;4.87;;;4.47;;
545;SDS011;259;53.304;9.816;2024-02-21T04:26:01;5.37;;;4.87;;
545;SDS011;259;53.304;9.816;2024-02-21T04:28:26;5.87;;;5.37;;
545;SDS011;259;53.304;9.816;2024-02-21T04:30:52;4.97;;;4.57;;
545;SDS011;259;53.304;9.816;2024-02-21T04:33:18;6.07;;;5.47;;
545;SDS011;259;53.304;9.816;2024-02-21T04:35:43;5.00;;;4.60;;
545;SDS011;259;53.304;9.816;2024-02-21T04:38:10;5.63;;;5.03;;
545;SDS011;259;53.304;9.816;2024-02-21T04:40:36;4.70;;;4.30;;
545;SDS011;259;53.304;9.816;2024-02-21T04:43:01;4.43;;;4.03;;
545;SDS011;259;53.304;9.816;2024-02-21T04:45:27;5.50;;;4.53;;
545;SDS011;259;53.304;9.816;2024-02-21T04:47:53;5.63;;;5.10;;
545;SDS011;259;53.304;9.816;2024-02-21T04:50:19;5.90;;;5.40;;
545;SDS011;259;53.304;9.816;2024-02-21T04:52:45;5.53;;;4.77;;
545;SDS011;259;53.304;9.816;2024-02-21T04:55:10;5.17;;;4.77;;
545;SDS011;259;53.304;9.816;2024-02-21T04:57:36;7.00;;;5.63;;
545;SDS011;259;53.304;9.816;2024-02-21T05:00:02;4.77;;;4.27;;
545;SDS011;259;53.304;9.816;2024-02-21T05:02:28;5.90;;;5.30;;
545;SDS011;259;53.304;9.816;2024-02-21T05:04:55;7.37;;;4.87;;
545;SDS011;259;53.304;9.816;2024-02-21T05:07:21;5.80;;;5.20;;
545;SDS011;259;53.304;9.816;2024-02-21T05:09:47;4.77;;;4.30;;
545;SDS011;259;53.304;9.816;2024-02-21T05:12:12;5.90;;;5.20;;
545;SDS011;259;53.304;9.816;2024-02-21T05:14:38;5.40;;;4.90;;
545;SDS011;259;53.304;9.816;2024-02-21T05:17:04;4.77;;;4.37;;
545;SDS011;259;53.304;9.816;2024-02-21T05:19:30;4.37;;;3.97;;
545;SDS011;259;53.304;9.816;2024-02-21T05:21:55;5.00;;;4.50;;
545;SDS011;259;53.304;9.816;2024-02-21T05:24:21;5.80;;;4.60;;
545;SDS011;259;53.304;9.816;2024-02-21T05:26:47;5.33;;;4.90;;
545;SDS011;259;53.304;9.816;2024-02-21T05:29:13;4.67;;;4.23;;
545;SDS011;259;53.304;9.816;2024-02-21T05:34:16;4.40;;;4.00;;
545;SDS011;259;53.304;9.816;2024-02-21T05:36:47;5.07;;;4.67;;
545;SDS011;259;53.304;9.816;2024-02-21T05:39:14;4.70;;;4.30;;
545;SDS011;259;53.304;9.816;2024-02-21T05:41:41;4.93;;;4.53;;
545;SDS011;259;53.304;9.816;2024-02-21T05:44:07;5.70;;;4.70;;
545;SDS011;259;53.304;9.816;2024-02-21T05:46:33;5.17;;;4.67;;
545;SDS011;259;53.304;9.816;2024-02-21T05:48:59;4.90;;;4.47;;
545;SDS011;259;53.304;9.816;2024-02-21T05:51:24;5.00;;;4.53;;
545;SDS011;259;53.304;9.816;2024-02-21T05:53:50;4.73;;;4.33;;
545;SDS011;259;53.304;9.816;2024-02-21T05:56:16;4.13;;;3.83;;
545;SDS011;259;53.304;9.816;2024-02-21T05:58:43;5.30;;;4.90;;
545;SDS011;259;53.304;9.816;2024-02-21T06:01:09;4.57;;;4.17;;
545;SDS011;259;53.304;9.816;2024-02-21T06:03:35;4.70;;;4.30;;
545;SDS011;259;53.304;9.816;2024-02-21T06:06:03;4.50;;;4.10;;
545;SDS011;259;53.304;9.816;2024-02-21T06:08:30;5.10;;;4.67;;
545;SDS011;259;53.304;9.816;2024-02-21T06:10:55;4.50;;;4.20;;
545;SDS011;259;53.304;9.816;2024-02-21T06:13:21;4.50;;;4.10;;
545;SDS011;259;53.304;9.816;2024-02-21T06:15:48;5.77;;;4.57;;
545;SDS011;259;53.304;9.816;2024-02-21T06:18:17;4.20;;;3.80;;
545;SDS011;259;53.304;9.816;2024-02-21T06:20:43;6.03;;;4.30;;
545;SDS011;259;53.304;9.816;2024-02-21T06:23:09;4.00;;;3.50;;
545;SDS011;259;53.304;9.816;2024-02-21T06:25:35;6.33;;;3.97;;
545;SDS011;259;53.304;9.816;2024-02-21T06:28:00;4.27;;;3.73;;
545;SDS011;259;53.304;9.816;2024-02-21T06:30:26;4.83;;;4.03;;
545;SDS011;259;53.304;9.816;2024-02-21T06:32:52;5.20;;;4.70;;
545;SDS011;259;53.304;9.816;2024-02-21T06:35:20;5.93;;;4.20;;
545;SDS011;259;53.304;9.816;2024-02-21T06:37:49;3.87;;;3.57;;
545;SDS011;259;53.304;9.816;2024-02-21T06:40:20;4.30;;;4.00;;
545;SDS011;259;53.304;9.816;2024-02-21T06:42:47;3.73;;;3.47;;
545;SDS011;259;53.304;9.816;2024-02-21T06:45:13;4.37;;;4.07;;
545;SDS011;259;53.304;9.816;2024-02-21T06:47:39;5.00;;;4.60;;
545;SDS011;259;53.304;9.816;2024-02-21T06:50:05;4.03;;;3.70;;
545;SDS011;259;53.304;9.816;2024-02-21T06:52:31;4.23;;;3.83;;
545;SDS011;259;53.304;9.816;2024-02-21T06:54:56;4.30;;;3.90;;
545;SDS011;259;53.304;9.816;2024-02-21T06:57:22;4.00;;;3.70;;
545;SDS011;259;53.304;9.816;2024-02-21T06:59:48;3.63;;;3.33;;
545;SDS011;259;53.304;9.816;2024-02-21T07:02:14;3.23;;;3.03;;
545;SDS011;259;53.304;9.816;2024-02-21T07:04:40;4.23;;;3.83;;
545;SDS011;259;53.304;9.816;2024-02-21T07:07:05;3.50;;;3.20;;
545;SDS011;259;53.304;9.816;2024-02-21T07:09:32;3.83;;;3.53;;
545;SDS011;259;53.304;9.816;2024-02-21T07:11:58;3.87;;;3.57;;
545;SDS011;259;53.304;9.816;2024-02-21T07:14:24;3.60;;;3.30;;
545;SDS011;259;53.304;9.816;2024-02-21T07:16:50;5.10;;;4.67;;
545;SDS011;259;53.304;9.816;2024-02-21T07:19:16;3.93;;;3.63;;
545;SDS011;259;53.304;9.816;2024-02-21T07:21:42;3.97;;;3.67;;
545;SDS011;259;53.304;9.816;2024-02-21T07:24:08;3.87;;;3.57;;
545;SDS011;259;53.304;9.816;2024-02-21T07:26:34;4.03;;;3.67;;
545;SDS011;259;53.304;9.816;2024-02-21T07:29:00;3.47;;;3.20;;
545;SDS011;259;53.304;9.816;2024-02-21T07:31:26;3.40;;;3.20;;
545;SDS011;259;53.304;9.816;2024-02-21T07:33:51;2.90;;;2.70;;
545;SDS011;259;53.304;9.816;2024-02-21T07:36:25;3.03;;;2.83;;
545;SDS011;259;53.304;9.816;2024-02-21T07:38:55;3.20;;;2.83;;
545;SDS011;259;53.304;9.816;2024-02-21T07:41:21;3.00;;;2.80;;
545;SDS011;259;53.304;9.816;2024-02-21T07:43:47;4.10;;;3.20;;
545;SDS011;259;53.304;9.816;2024-02-21T07:46:13;3.40;;;3.10;;
545;SDS011;259;53.304;9.816;2024-02-21T07:48:39;3.00;;;2.80;;
545;SDS011;259;53.304;9.816;2024-02-21T07:51:05;3.53;;;3.23;;
545;SDS011;259;53.304;9.816;2024-02-21T07:53:31;3.40;;;3.10;;
545;SDS011;259;53.304;9.816;2024-02-21T07:55:56;3.47;;;3.17;;
545;SDS011;259;53.304;9.816;2024-02-21T07:58:22;2.57;;;2.37;;
545;SDS011;259;53.304;9.816;2024-02-21T08:00:48;2.90;;;2.70;;
545;SDS011;259;53.304;9.816;2024-02-21T08:03:13;2.80;;;2.60;;
545;SDS011;259;53.304;9.816;2024-02-21T08:05:42;2.87;;;2.67;;
545;SDS011;259;53.304;9.816;2024-02-21T08:08:08;3.80;;;3.50;;
545;SDS011;259;53.304;9.816;2024-02-21T08:10:34;3.00;;;2.80;;
545;SDS011;259;53.304;9.816;2024-02-21T08:13:00;3.10;;;2.80;;
545;SDS011;259;53.304;9.816;2024-02-21T08:15:25;3.73;;;3.43;;
545;SDS011;259;53.304;9.816;2024-02-21T08:17:54;2.60;;;2.40;;
545;SDS011;259;53.304;9.816;2024-02-21T08:20:24;3.00;;;2.70;;
545;SDS011;259;53.304;9.816;2024-02-21T08:22:50;2.20;;;2.10;;
545;SDS011;259;53.304;9.816;2024-02-21T08:25:16;2.83;;;2.17;;
545;SDS011;259;53.304;9.816;2024-02-21T08:27:41;2.80;;;2.60;;
545;SDS011;259;53.304;9.816;2024-02-21T08:30:07;2.23;;;2.13;;
545;SDS011;259;53.304;9.816;2024-02-21T08:32:33;2.00;;;1.90;;
545;SDS011;259;53.304;9.816;2024-02-21T08:35:01;2.83;;;2.63;;
545;SDS011;259;53.304;9.816;2024-02-21T08:37:27;2.50;;;2.30;;
545;SDS011;259;53.304;9.816;2024-02-21T08:39:52;3.60;;;2.63;;
545;SDS011;259;53.304;9.816;2024-02-21T08:42:18;2.43;;;2.23;;
545;SDS011;259;53.304;9.816;2024-02-21T08:44:44;2.40;;;2.20;;
545;SDS011;259;53.304;9.816;2024-02-21T08:47:10;3.30;;;3.10;;
545;SDS011;259;53.304;9.816;2024-02-21T08:49:36;2.53;;;2.33;;
545;SDS011;259;53.304;9.816;2024-02-21T08:52:02;2.43;;;2.33;;
545;SDS011;259;53.304;9.816;2024-02-21T08:54:28;2.60;;;2.40;;
545;SDS011;259;53.304;9.816;2024-02-21T08:56:54;3.13;;;2.93;;
545;SDS011;259;53.304;9.816;2024-02-21T08:59:21;2.40;;;2.30;;
545;SDS011;259;53.304;9.816;2024-02-21T09:01:47;2.50;;;2.30;;
545;SDS011;259;53.304;9.816;2024-02-21T09:04:13;2.67;;;2.47;;
545;SDS011;259;53.304;9.816;2024-02-21T09:06:38;2.33;;;2.23;;
545;SDS011;259;53.304;9.816;2024-02-21T09:09:07;2.80;;;2.60;;
545;SDS011;259;53.304;9.816;2024-02-21T09:11:34;2.20;;;2.00;;
545;SDS011;259;53.304;9.816;2024-02-21T09:14:00;2.50;;;2.30;;
545;SDS011;259;53.304;9.816;2024-02-21T09:16:28;2.00;;;1.90;;
545;SDS011;259;53.304;9.816;2024-02-21T09:18:57;3.13;;;2.80;;
545;SDS011;259;53.304;9.816;2024-02-21T09:21:23;2.63;;;2.43;;
545;SDS011;259;53.304;9.816;2024-02-21T09:23:49;2.83;;;2.63;;
545;SDS011;259;53.304;9.816;2024-02-21T09:26:14;2.00;;;1.90;;
545;SDS011;259;53.304;9.816;2024-02-21T09:28:42;2.87;;;2.67;;
545;SDS011;259;53.304;9.816;2024-02-21T09:31:09;2.10;;;1.90;;
545;SDS011;259;53.304;9.816;2024-02-21T09:33:35;2.70;;;2.50;;
545;SDS011;259;53.304;9.816;2024-02-21T09:36:01;2.30;;;2.10;;
545;SDS011;259;53.304;9.816;2024-02-21T09:38:26;2.57;;;2.43;;
545;SDS011;259;53.304;9.816;2024-02-21T09:40:55;3.27;;;2.97;;
545;SDS011;259;53.304;9.816;2024-02-21T09:43:54;2.40;;;2.30;;
545;SDS011;259;53.304;9.816;2024-02-21T09:46:28;3.23;;;2.70;;
545;SDS011;259;53.304;9.816;2024-02-21T09:49:32;2.53;;;2.33;;
545;SDS011;259;53.304;9.816;2024-02-21T09:52:01;2.40;;;2.30;;
545;SDS011;259;53.304;9.816;2024-02-21T09:54:28;3.07;;;2.87;;
545;SDS011;259;53.304;9.816;2024-02-21T09:56:57;3.20;;;3.00;;
545;SDS011;259;53.304;9.816;2024-02-21T09:59:23;2.90;;;2.70;;
545;SDS011;259;53.304;9.816;2024-02-21T10:01:49;2.90;;;2.70;;
545;SDS011;259;53.304;9.816;2024-02-21T10:04:16;2.33;;;2.23;;
545;SDS011;259;53.304;9.816;2024-02-21T10:06:43;3.20;;;3.00;;
545;SDS011;259;53.304;9.816;2024-02-21T10:09:19;2.83;;;2.63;;
545;SDS011;259;53.304;9.816;2024-02-21T10:11:55;2.90;;;2.60;;
545;SDS011;259;53.304;9.816;2024-02-21T10:14:21;3.47;;;3.17;;
545;SDS011;259;53.304;9.816;2024-02-21T10:16:48;3.50;;;3.30;;
545;SDS011;259;53.304;9.816;2024-02-21T10:19:21;2.50;;;2.30;;
545;SDS011;259;53.304;9.816;2024-02-21T10:22:00;2.80;;;2.60;;
545;SDS011;259;53.304;9.816;2024-02-21T10:24:34;2.67;;;2.30;;
545;SDS011;259;53.304;9.816;2024-02-21T10:27:03;2.73;;;2.53;;
545;SDS011;259;53.304;9.816;2024-02-21T10:29:34;2.67;;;2.50;;
545;SDS011;259;53.304;9.816;2024-02-21T10:32:07;2.77;;;2.57;;
545;SDS011;259;53.304;9.816;2024-02-21T10:34:34;2.80;;;2.60;;
545;SDS011;259;53.304;9.816;2024-02-21T10:37:04;2.93;;;2.60;;
545;SDS011;259;53.304;9.816;2024-02-21T10:39:34;2.87;;;2.70;;
545;SDS011;259;53.304;9.816;2024-02-21T10:42:03;3.13;;;2.90;;
545;SDS011;259;53.304;9.816;2024-02-21T10:44:30;2.63;;;2.27;;
545;SDS011;259;53.304;9.816;2024-02-21T10:47:03;2.90;;;2.60;;
545;SDS011;259;53.304;9.816;2024-02-21T10:49:39;2.57;;;2.47;;
545;SDS011;259;53.304;9.816;2024-02-21T10:57:25;3.20;;;2.53;;
545;SDS011;259;53.304;9.816;2024-02-21T10:59:52;3.07;;;2.87;;
545;SDS011;259;53.304;9.816;2024-02-21T11:02:21;3.43;;;3.13;;
545;SDS011;259;53.304;9.816;2024-02-21T11:04:47;2.70;;;2.50;;
545;SDS011;259;53.304;9.816;2024-02-21T11:07:13;3.23;;;2.93;;
545;SDS011;259;53.304;9.816;2024-02-21T11:09:40;2.97;;;2.77;;
545;SDS011;259;53.304;9.816;2024-02-21T11:12:20;2.87;;;2.67;;
545;SDS011;259;53.304;9.816;2024-02-21T11:14:47;2.93;;;2.63;;
545;SDS011;259;53.304;9.816;2024-02-21T11:17:16;3.40;;;3.10;;
545;SDS011;259;53.304;9.816;2024-02-21T11:19:42;3.10;;;2.80;;
545;SDS011;259;53.304;9.816;2024-02-21T11:22:15;3.10;;;2.80;;
545;SDS011;259;53.304;9.816;2024-02-21T11:24:49;3.10;;;2.57;;
545;SDS011;259;53.304;9.816;2024-02-21T11:27:15;3.00;;;2.70;;
545;SDS011;259;53.304;9.816;2024-02-21T11:32:30;3.27;;;3.07;;
545;SDS011;259;53.304;9.816;2024-02-21T11:37:26;2.50;;;2.33;;
545;SDS011;259;53.304;9.816;2024-02-21T11:39:57;3.30;;;3.00;;
545;SDS011;259;53.304;9.816;2024-02-21T11:42:24;3.00;;;2.80;;
545;SDS011;259;53.304;9.816;2024-02-21T11:44:54;3.23;;;3.03;;
545;SDS011;259;53.304;9.816;2024-02-21T11:47:24;3.03;;;2.80;;
545;SDS011;259;53.304;9.816;2024-02-21T11:49:50;3.00;;;2.80;;
545;SDS011;259;53.304;9.816;2024-02-21T11:52:23;2.70;;;2.50;;
545;SDS011;259;53.304;9.816;2024-02-21T11:54:50;2.77;;;2.57;;
545;SDS011;259;53.304;9.816;2024-02-21T11:57:22;2.47;;;2.27;;
545;SDS011;259;53.304;9.816;2024-02-21T11:59:48;2.40;;;2.20;;
545;SDS011;259;53.304;9.816;2024-02-21T12:02:17;2.77;;;2.57;;
545;SDS011;259;53.304;9.816;2024-02-21T12:04:43;2.43;;;2.23;;
545;SDS011;259;53.304;9.816;2024-02-21T12:07:09;2.80;;;2.60;;
545;SDS011;259;53.304;9.816;2024-02-21T12:09:35;2.90;;;2.70;;
545;SDS011;259;53.304;9.816;2024-02-21T12:12:01;3.33;;;3.03;;
545;SDS011;259;53.304;9.816;2024-02-21T12:14:30;2.30;;;2.20;;
545;SDS011;259;53.304;9.816;2024-02-21T12:17:00;2.53;;;2.33;;
545;SDS011;259;53.304;9.816;2024-02-21T12:19:30;2.40;;;2.30;;
545;SDS011;259;53.304;9.816;2024-02-21T12:21:58;2.70;;;2.50;;
545;SDS011;259;53.304;9.816;2024-02-21T12:24:26;2.57;;;2.37;;
545;SDS011;259;53.304;9.816;2024-02-21T12:26:53;2.23;;;2.13;;
545;SDS011;259;53.304;9.816;2024-02-21T12:29:21;2.97;;;2.77;;
545;SDS011;259;53.304;9.816;2024-02-21T12:31:49;2.40;;;2.20;;
545;SDS011;259;53.304;9.816;2024-02-21T12:34:15;3.10;;;2.90;;
545;SDS011;259;53.304;9.816;2024-02-21T12:36:42;2.77;;;2.57;;
545;SDS011;259;53.304;9.816;2024-02-21T12:39:14;2.67;;;2.47;;
545;SDS011;259;53.304;9.816;2024-02-21T12:41:40;2.87;;;2.60;;
545;SDS011;259;53.304;9.816;2024-02-21T12:44:09;2.77;;;2.57;;
545;SDS011;259;53.304;9.816;2024-02-21T12:46:36;2.33;;;2.23;;
545;SDS011;259;53.304;9.816;2024-02-21T12:49:03;2.60;;;2.40;;
545;SDS011;259;53.304;9.816;2024-02-21T12:51:29;2.60;;;2.40;;
545;SDS011;259;53.304;9.816;2024-02-21T12:53:59;2.40;;;2.27;;
545;SDS011;259;53.304;9.816;2024-02-21T12:56:25;2.30;;;2.20;;
545;SDS011;259;53.304;9.816;2024-02-21T12:58:56;2.57;;;2.37;;
545;SDS011;259;53.304;9.816;2024-02-21T13:01:22;2.70;;;2.50;;
545;SDS011;259;53.304;9.816;2024-02-21T13:03:48;2.60;;;2.40;;
545;SDS011;259;53.304;9.816;2024-02-21T13:06:14;2.37;;;2.27;;
545;SDS011;259;53.304;9.816;2024-02-21T13:08:39;2.60;;;2.40;;
545;SDS011;259;53.304;9.816;2024-02-21T13:11:06;4.07;;;2.33;;
545;SDS011;259;53.304;9.816;2024-02-21T13:13:32;2.77;;;2.57;;
545;SDS011;259;53.304;9.816;2024-02-21T13:15:58;2.60;;;2.40;;
545;SDS011;259;53.304;9.816;2024-02-21T13:18:24;2.43;;;2.23;;
545;SDS011;259;53.304;9.816;2024-02-21T13:20:50;2.30;;;2.20;;
545;SDS011;259;53.304;9.816;2024-02-21T13:23:16;2.57;;;2.37;;
545;SDS011;259;53.304;9.816;2024-02-21T13:25:42;3.20;;;2.20;;
545;SDS011;259;53.304;9.816;2024-02-21T13:28:09;2.50;;;2.30;;
545;SDS011;259;53.304;9.816;2024-02-21T13:30:35;2.17;;;2.07;;
545;SDS011;259;53.304;9.816;2024-02-21T13:33:00;2.23;;;2.13;;
545;SDS011;259;53.304;9.816;2024-02-21T13:35:28;2.50;;;2.30;;
545;SDS011;259;53.304;9.816;2024-02-21T13:37:53;2.53;;;2.33;;
545;SDS011;259;53.304;9.816;2024-02-21T13:40:19;2.60;;;2.40;;
545;SDS011;259;53.304;9.816;2024-02-21T13:42:45;2.80;;;2.60;;
545;SDS011;259;53.304;9.816;2024-02-21T13:45:10;2.50;;;2.30;;
545;SDS011;259;53.304;9.816;2024-02-21T13:47:36;2.20;;;2.10;;
545;SDS011;259;53.304;9.816;2024-02-21T13:50:03;2.57;;;2.37;;
545;SDS011;259;53.304;9.816;2024-02-21T13:52:33;2.27;;;2.17;;
545;SDS011;259;53.304;9.816;2024-02-21T13:54:59;2.60;;;2.40;;
545;SDS011;259;53.304;9.816;2024-02-21T13:57:25;2.33;;;2.13;;
545;SDS011;259;53.304;9.816;2024-02-21T13:59:51;2.40;;;2.20;;
545;SDS011;259;53.304;9.816;2024-02-21T14:02:16;3.03;;;2.20;;
545;SDS011;259;53.304;9.816;2024-02-21T14:04:43;2.17;;;2.07;;
545;SDS011;259;53.304;9.816;2024-02-21T14:07:08;2.20;;;2.10;;
545;SDS011;259;53.304;9.816;2024-02-21T14:09:34;2.07;;;1.97;;
545;SDS011;259;53.304;9.816;2024-02-21T14:12:00;2.50;;;2.30;;
545;SDS011;259;53.304;9.816;2024-02-21T14:14:27;1.80;;;1.70;;
545;SDS011;259;53.304;9.816;2024-02-21T14:16:52;1.90;;;1.80;;
545;SDS011;259;53.304;9.816;2024-02-21T14:19:18;2.10;;;2.00;;
545;SDS011;259;53.304;9.816;2024-02-21T14:21:44;2.50;;;2.30;;
545;SDS011;259;53.304;9.816;2024-02-21T14:24:10;2.73;;;2.53;;
545;SDS011;259;53.304;9.816;2024-02-21T14:26:37;2.30;;;2.13;;
545;SDS011;259;53.304;9.816;2024-02-21T14:29:04;2.87;;;2.13;;
545;SDS011;259;53.304;9.816;2024-02-21T14:31:32;2.53;;;1.83;;
545;SDS011;259;53.304;9.816;2024-02-21T14:33:58;2.13;;;2.03;;
545;SDS011;259;53.304;9.816;2024-02-21T14:36:25;1.53;;;1.43;;
545;SDS011;259;53.304;9.816;2024-02-21T14:38:51;1.60;;;1.50;;
545;SDS011;259;53.304;9.816;2024-02-21T14:41:17;2.17;;;2.00;;
545;SDS011;259;53.304;9.816;2024-02-21T14:43:43;2.40;;;2.20;;
545;SDS011;259;53.304;9.816;2024-02-21T14:46:09;2.80;;;2.60;;
545;SDS011;259;53.304;9.816;2024-02-21T14:48:37;2.30;;;2.20;;
545;SDS011;259;53.304;9.816;2024-02-21T14:51:03;1.90;;;1.80;;
545;SDS011;259;53.304;9.816;2024-02-21T14:53:29;2.50;;;1.90;;
545;SDS011;259;53.304;9.816;2024-02-21T14:55:58;2.50;;;2.10;;
545;SDS011;259;53.304;9.816;2024-02-21T14:58:24;2.10;;;2.00;;
545;SDS011;259;53.304;9.816;2024-02-21T15:00:49;2.47;;;2.37;;
545;SDS011;259;53.304;9.816;2024-02-21T15:03:18;2.10;;;1.90;;
545;SDS011;259;53.304;9.816;2024-02-21T15:05:46;2.07;;;1.93;;
545;SDS011;259;53.304;9.816;2024-02-21T15:08:13;2.20;;;2.00;;
545;SDS011;259;53.304;9.816;2024-02-21T15:10:41;1.90;;;1.80;;
545;SDS011;259;53.304;9.816;2024-02-21T15:13:08;2.13;;;1.93;;
545;SDS011;259;53.304;9.816;2024-02-21T15:15:34;2.83;;;2.63;;
545;SDS011;259;53.304;9.816;2024-02-21T15:18:00;2.13;;;2.03;;
545;SDS011;259;53.304;9.816;2024-02-21T15:20:25;2.43;;;2.27;;
545;SDS011;259;53.304;9.816;2024-02-21T15:22:53;2.00;;;1.90;;
545;SDS011;259;53.304;9.816;2024-02-21T15:25:18;2.40;;;2.20;;
545;SDS011;259;53.304;9.816;2024-02-21T15:27:44;2.17;;;2.07;;
545;SDS011;259;53.304;9.816;2024-02-21T15:30:10;2.10;;;2.00;;
545;SDS011;259;53.304;9.816;2024-02-21T15:32:40;2.00;;;1.90;;
545;SDS011;259;53.304;9.816;2024-02-21T15:35:09;2.30;;;2.10;;
545;SDS011;259;53.304;9.816;2024-02-21T15:37:38;1.93;;;1.83;;
545;SDS011;259;53.304;9.816;2024-02-21T15:40:04;1.87;;;1.77;;
545;SDS011;259;53.304;9.816;2024-02-21T15:42:33;1.60;;;1.50;;
545;SDS011;259;53.304;9.816;2024-02-21T15:44:58;1.80;;;1.70;;
545;SDS011;259;53.304;9.816;2024-02-21T15:47:29;2.07;;;1.97;;
545;SDS011;259;53.304;9.816;2024-02-21T15:49:56;1.77;;;1.67;;
545;SDS011;259;53.304;9.816;2024-02-21T15:52:24;1.57;;;1.47;;
545;SDS011;259;53.304;9.816;2024-02-21T15:54:49;2.10;;;2.00;;